»·PEaware :: UAL1571 KPHX-KSFO

UAL1571 :: KPHX-KSFO

FLIGHT INFORMATION

Flight Status: Arrived
Operator:
United Airlines
More flights by this operator :: More flights under this callsign
Pilot: Saso K. (7898)
Aircraft: AIRBUS A320
(A320)
More flights by this aircraft type
Origin: KPHX Phoenix Sky Harbor Intl
United States
Destination: KSFO San Francisco Intl
United States
More flights between these airports :: More routes between these airports
Route: MAYSA5 SISIE DOVEE BTY RUSME DYAMD3
File this flight plan on PilotEdge
Remarks: EET / KZLA0018 KZOA0105
Altitude:
(Current/Filed)
38,000ft
Speed:
(Current/Filed)
456kts
Departed: 07-Sep-17 10:08 AM
Arrived: 07-Sep-17 11:47 AM
Distance/Time
Traveled:
565nm/1:39
Distance/Time
To Go:
Arrived

Flight Plot

Page will automatically refresh every two minutes.

Flight plan parsing failed; only flown route is shown


Map Options




Map Legend


Flown Route
Filed Route
Departure Airport
Arrival Airport
Navaid (VOR, NDB)
Fix

Horizontal Profiles

Position Reports

Time Latitude Longitude Heading Altitude Ground
Speed
07-Sep-17 09:19 33.437575 -111.998807 270 1132ft 0kts
07-Sep-17 09:20 33.437575 -111.998807 270 1132ft 0kts
07-Sep-17 09:21 33.437575 -111.998807 270 1132ft 0kts
07-Sep-17 09:22 33.437575 -111.998807 270 1132ft 0kts
07-Sep-17 09:23 33.437575 -111.998807 270 1132ft 0kts
07-Sep-17 09:24 33.437575 -111.998807 270 1132ft 0kts
07-Sep-17 09:25 33.437575 -111.998807 270 1132ft 0kts
07-Sep-17 09:26 33.437575 -111.998807 270 1132ft 0kts
07-Sep-17 09:27 33.437575 -111.998807 270 1132ft 0kts
07-Sep-17 09:28 33.437575 -111.998807 270 1132ft 0kts
07-Sep-17 09:29 33.437575 -111.998807 270 1132ft 0kts
07-Sep-17 09:30 33.437575 -111.998807 270 1132ft 0kts
07-Sep-17 09:31 33.437575 -111.998807 270 1132ft 0kts
07-Sep-17 09:32 33.437575 -111.998807 270 1132ft 0kts
07-Sep-17 09:33 33.437575 -111.998807 270 1132ft 0kts
07-Sep-17 09:34 33.437575 -111.998807 270 1132ft 0kts
07-Sep-17 09:35 33.437575 -111.998807 270 1132ft 0kts
07-Sep-17 09:36 33.437575 -111.998807 270 1132ft 0kts
07-Sep-17 09:37 33.437575 -111.998807 270 1132ft 0kts
07-Sep-17 09:38 33.437575 -111.998807 270 1132ft 0kts
07-Sep-17 09:39 33.437575 -111.998807 270 1132ft 0kts
07-Sep-17 09:40 33.437575 -111.998807 270 1132ft 0kts
07-Sep-17 09:41 33.437575 -111.998807 270 1132ft 0kts
07-Sep-17 09:42 33.437575 -111.998807 270 1132ft 0kts
07-Sep-17 09:43 33.437575 -111.998807 270 1132ft 0kts
07-Sep-17 09:44 33.437575 -111.998807 270 1132ft 0kts
07-Sep-17 09:45 33.437575 -111.998807 270 1132ft 0kts
07-Sep-17 09:46 33.437575 -111.998807 270 1132ft 0kts
07-Sep-17 09:47 33.437575 -111.998807 270 1132ft 0kts
07-Sep-17 09:48 33.437575 -111.998807 270 1132ft 0kts
07-Sep-17 09:49 33.437575 -111.998807 270 1132ft 0kts
07-Sep-17 09:50 33.437575 -111.998807 270 1132ft 0kts
07-Sep-17 09:51 33.437575 -111.998807 270 1132ft 0kts
07-Sep-17 09:52 33.437575 -111.998807 270 1132ft 0kts
07-Sep-17 09:53 33.437575 -111.998807 270 1132ft 0kts
07-Sep-17 09:54 33.437575 -111.998806 270 1132ft 0kts
07-Sep-17 09:55 33.437575 -111.998806 270 1132ft 0kts
07-Sep-17 09:56 33.437575 -111.998640 269 1132ft 2kts
07-Sep-17 09:57 33.437424 -111.998261 355 1133ft 0kts
07-Sep-17 09:58 33.437786 -111.998271 359 1133ft 0kts
07-Sep-17 09:59 33.437786 -111.998271 359 1133ft 0kts
07-Sep-17 10:00 33.437786 -111.998271 359 1133ft 0kts
07-Sep-17 10:01 33.437786 -111.998271 0 1133ft 0kts
07-Sep-17 10:02 33.437812 -111.998271 0 1134ft 1kts
07-Sep-17 10:03 33.438895 -111.998340 316 1135ft 7kts
07-Sep-17 10:04 33.439047 -112.001942 270 1131ft 14kts
07-Sep-17 10:05 33.439747 -112.004629 268 1131ft 8kts
07-Sep-17 10:06 33.439752 -112.007468 269 1131ft 10kts
07-Sep-17 10:07 33.439752 -112.012385 271 1128ft 18kts
07-Sep-17 10:08 33.439760 -112.019088 269 1121ft 22kts
07-Sep-17 10:09 33.439784 -112.026372 270 1118ft 17kts
07-Sep-17 10:10 33.439835 -112.029504 301 1115ft 0kts
07-Sep-17 10:11 33.440768 -112.029670 6 1115ft 1kts
07-Sep-17 10:12 33.440854 -112.021584 89 1122ft 114kts
07-Sep-17 10:13 33.439573 -111.967842 94 3049ft 180kts
07-Sep-17 10:14 33.436239 -111.900078 94 4858ft 257kts
07-Sep-17 10:15 33.479994 -111.841028 3 7715ft 290kts
07-Sep-17 10:16 33.561006 -111.838957 2 10696ft 309kts
07-Sep-17 10:17 33.654288 -111.837480 355 12575ft 357kts
07-Sep-17 10:18 33.746734 -111.873501 310 14985ft 374kts
07-Sep-17 10:19 33.798473 -111.957481 305 16983ft 383kts
07-Sep-17 10:20 33.861935 -112.061602 305 19193ft 394kts
07-Sep-17 10:21 33.926884 -112.168393 305 21207ft 404kts
07-Sep-17 10:22 34.000298 -112.289494 305 23224ft 414kts
07-Sep-17 10:23 34.066131 -112.373322 319 24588ft 423kts
07-Sep-17 10:24 34.154775 -112.462434 319 26116ft 430kts
07-Sep-17 10:25 34.246226 -112.554713 319 27553ft 436kts
07-Sep-17 10:26 34.339323 -112.648926 319 28840ft 442kts
07-Sep-17 10:27 34.432877 -112.743234 318 30012ft 448kts
07-Sep-17 10:28 34.527016 -112.839061 318 31483ft 444kts
07-Sep-17 10:29 34.619014 -112.936578 316 32807ft 440kts
07-Sep-17 10:30 34.709166 -113.035129 315 33962ft 439kts
07-Sep-17 10:31 34.799403 -113.134079 315 34201ft 436kts
07-Sep-17 10:32 34.888879 -113.232501 316 34163ft 438kts
07-Sep-17 10:33 34.978768 -113.331678 315 34140ft 439kts
07-Sep-17 10:34 35.049548 -113.447724 282 34152ft 434kts
07-Sep-17 10:35 35.076227 -113.589538 289 34180ft 434kts
07-Sep-17 10:36 35.117110 -113.719439 288 34143ft 432kts
07-Sep-17 10:37 35.158950 -113.854152 288 34115ft 431kts
07-Sep-17 10:38 35.200835 -113.989770 288 34114ft 430kts
07-Sep-17 10:39 35.242595 -114.125574 288 34125ft 431kts
07-Sep-17 10:40 35.284412 -114.262190 288 34133ft 431kts
07-Sep-17 10:41 35.326065 -114.398908 288 34021ft 432kts
07-Sep-17 10:42 35.367580 -114.535822 288 33952ft 432kts
07-Sep-17 10:43 35.408280 -114.670444 288 33956ft 432kts
07-Sep-17 10:44 35.453707 -114.805107 301 33978ft 437kts
07-Sep-17 10:45 35.531709 -114.918116 308 34055ft 439kts
07-Sep-17 10:46 35.611538 -115.030417 308 34057ft 439kts
07-Sep-17 10:47 35.691227 -115.142905 308 34046ft 440kts
07-Sep-17 10:48 35.770996 -115.255878 308 34057ft 442kts
07-Sep-17 10:49 35.850920 -115.369447 308 34089ft 444kts
07-Sep-17 10:50 35.931257 -115.483973 309 34077ft 445kts
07-Sep-17 10:51 36.010929 -115.597955 308 34050ft 444kts
07-Sep-17 10:52 36.087956 -115.707883 308 34072ft 444kts
07-Sep-17 10:53 36.162695 -115.815334 307 34084ft 443kts
07-Sep-17 10:54 36.241988 -115.929899 307 34074ft 443kts
07-Sep-17 10:55 36.320935 -116.044344 307 34071ft 443kts
07-Sep-17 10:56 36.399613 -116.158800 308 34072ft 443kts
07-Sep-17 10:57 36.478495 -116.273937 308 34076ft 443kts
07-Sep-17 10:58 36.557297 -116.389346 308 34082ft 443kts
07-Sep-17 10:59 36.636241 -116.505374 308 34085ft 443kts
07-Sep-17 11:00 36.715175 -116.621789 308 34085ft 443kts
07-Sep-17 11:01 36.792688 -116.735342 309 34087ft 444kts
07-Sep-17 11:02 36.883291 -116.838548 315 34145ft 446kts
07-Sep-17 11:03 36.975263 -116.940222 315 34250ft 444kts
07-Sep-17 11:04 37.066970 -117.041943 316 34233ft 441kts
07-Sep-17 11:05 37.157340 -117.142521 316 34165ft 441kts
07-Sep-17 11:06 37.248835 -117.244694 316 34183ft 443kts
07-Sep-17 11:07 37.340263 -117.347131 316 34217ft 444kts
07-Sep-17 11:08 37.431787 -117.450005 317 34190ft 441kts
07-Sep-17 11:09 37.497182 -117.569930 280 34165ft 417kts
07-Sep-17 11:10 37.509116 -117.701084 274 34157ft 417kts
07-Sep-17 11:11 37.520930 -117.845003 273 34139ft 417kts
07-Sep-17 11:12 37.532428 -117.989542 273 34139ft 417kts
07-Sep-17 11:13 37.543695 -118.133617 273 34139ft 417kts
07-Sep-17 11:14 37.554820 -118.277438 274 34136ft 417kts
07-Sep-17 11:15 37.565729 -118.421283 274 34162ft 417kts
07-Sep-17 11:16 37.576549 -118.566337 274 34269ft 417kts
07-Sep-17 11:17 37.587039 -118.705530 273 34293ft 420kts
07-Sep-17 11:18 37.598009 -118.855109 273 34321ft 435kts
07-Sep-17 11:19 37.608572 -119.003984 274 34317ft 423kts
07-Sep-17 11:20 37.618721 -119.149808 274 34295ft 418kts
07-Sep-17 11:21 37.628596 -119.294289 274 34261ft 416kts
07-Sep-17 11:22 37.638296 -119.438694 274 34279ft 417kts
07-Sep-17 11:23 37.647860 -119.583650 274 34256ft 420kts
07-Sep-17 11:24 37.656395 -119.711318 273 34142ft 421kts
07-Sep-17 11:25 37.665863 -119.857720 273 34096ft 422kts
07-Sep-17 11:26 37.675092 -120.005684 273 32201ft 430kts
07-Sep-17 11:27 37.684026 -120.151978 273 30328ft 415kts
07-Sep-17 11:28 37.692476 -120.293164 273 28485ft 400kts
07-Sep-17 11:29 37.696216 -120.428922 260 26657ft 384kts
07-Sep-17 11:30 37.680973 -120.558797 260 24844ft 371kts
07-Sep-17 11:31 37.666724 -120.680761 259 23137ft 358kts
07-Sep-17 11:32 37.653041 -120.797901 258 21494ft 346kts
07-Sep-17 11:33 37.638549 -120.917704 258 20062ft 360kts
07-Sep-17 11:34 37.622903 -121.038958 257 18127ft 350kts
07-Sep-17 11:35 37.607307 -121.154804 258 16430ft 336kts
07-Sep-17 11:36 37.592052 -121.267508 259 14808ft 326kts
07-Sep-17 11:37 37.579804 -121.374110 260 13248ft 311kts
07-Sep-17 11:38 37.568010 -121.475868 260 11777ft 298kts
07-Sep-17 11:39 37.556635 -121.573054 261 10490ft 288kts
07-Sep-17 11:40 37.543726 -121.666154 252 10260ft 282kts
07-Sep-17 11:41 37.521612 -121.750945 251 9169ft 273kts
07-Sep-17 11:42 37.501470 -121.831097 252 8315ft 255kts
07-Sep-17 11:43 37.492596 -121.906794 272 7345ft 250kts
07-Sep-17 11:44 37.497319 -121.986955 272 5745ft 239kts
07-Sep-17 11:45 37.501916 -122.067736 272 4380ft 241kts
07-Sep-17 11:46 37.523170 -122.143499 298 3542ft 230kts
07-Sep-17 11:47 37.552576 -122.211407 295 2570ft 216kts
07-Sep-17 11:48 37.578289 -122.272956 295 1520ft 179kts
07-Sep-17 11:49 37.598915 -122.322195 294 649ft 140kts
07-Sep-17 11:50 37.616288 -122.363792 298 17ft 137kts
07-Sep-17 11:51 37.622292 -122.381398 274 31ft 14kts
07-Sep-17 11:52 37.620875 -122.383378 195 32ft 4kts
07-Sep-17 11:53 37.620100 -122.385606 207 32ft 7kts
07-Sep-17 11:54 37.619137 -122.385985 173 32ft 2kts
07-Sep-17 11:55 37.618915 -122.385944 170 32ft 0kts
07-Sep-17 11:56 37.618915 -122.385944 170 32ft 0kts

Navigation Log

Ident Type
Flight plan parsing failed, navigation log unavailable